KGRY

Green Canyon 338

Green Canyon 338, Louisiana, USA
METAR KGRY 241435Z AUTO 21014KT 10SM CLR 28/24 A3001 RMK A01
Observed Flight Rules
Jun-24 @ 14:35 UTC (31 minutes ago) Visual Flight Rules
Wind Visibility Clouds
210° at 14 knots 10 miles
  • Clear skies
Temperatures Readings
Current 28°C / 82°F
Dewpoint 24°C / 75°F
Humidity 79%
Altimeter 30.01" Hg
Pressure 1016 hPa
Elevation 58
METAR KGRY 241435Z AUTO 21014KT 10SM CLR 28/24 A3001 RMK A01
Observed Flight Rules
Jun-24 @ 14:35 UTC
(31 minutes ago)
VFR
Wind Visibility
210° at 14 knots 10 miles
Clouds
  • Clear skies
Temperature Dewpoint
28°C / 82°F 24°C / 75°F
Humidity Altimeter Pressure
79% 30.01" Hg 1016 hPa